sensor_id;sensor_type;location;lat;lon;timestamp;pressure;altitude;pressure_sealevel;temperature;humidity
76858;BME280;65830;0.000;0.000;2024-02-23T00:00:04;99689.34;;;5.61;89.15
76858;BME280;65830;0.000;0.000;2024-02-23T00:02:31;99697.56;;;5.43;91.85
76858;BME280;65830;0.000;0.000;2024-02-23T00:04:56;99700.72;;;5.35;92.41
76858;BME280;65830;0.000;0.000;2024-02-23T00:07:22;99700.72;;;5.35;92.93
76858;BME280;65830;0.000;0.000;2024-02-23T00:09:47;99702.41;;;5.49;92.45
76858;BME280;65830;0.000;0.000;2024-02-23T00:12:13;99700.50;;;5.38;92.50
76858;BME280;65830;0.000;0.000;2024-02-23T00:14:39;99696.19;;;5.50;92.18
76858;BME280;65830;0.000;0.000;2024-02-23T00:17:04;99701.34;;;5.65;90.54
76858;BME280;65830;0.000;0.000;2024-02-23T00:19:30;99705.22;;;5.72;90.08
76858;BME280;65830;0.000;0.000;2024-02-23T00:21:56;99693.44;;;5.65;90.60
76858;BME280;65830;0.000;0.000;2024-02-23T00:24:22;99692.47;;;5.91;90.16
76858;BME280;65830;0.000;0.000;2024-02-23T00:26:48;99683.63;;;5.80;89.92
76858;BME280;65830;0.000;0.000;2024-02-23T00:29:14;99689.25;;;5.75;90.33
76858;BME280;65830;0.000;0.000;2024-02-23T00:31:40;99679.25;;;5.67;90.93
76858;BME280;65830;0.000;0.000;2024-02-23T00:34:06;99685.00;;;5.72;90.48
76858;BME280;65830;0.000;0.000;2024-02-23T00:36:41;99677.84;;;5.87;90.56
76858;BME280;65830;0.000;0.000;2024-02-23T00:39:07;99683.22;;;5.99;89.07
76858;BME280;65830;0.000;0.000;2024-02-23T00:41:33;99678.91;;;5.85;89.69
76858;BME280;65830;0.000;0.000;2024-02-23T00:43:59;99665.75;;;5.72;90.62
76858;BME280;65830;0.000;0.000;2024-02-23T00:46:24;99675.34;;;5.73;90.98
76858;BME280;65830;0.000;0.000;2024-02-23T00:48:50;99679.75;;;5.85;90.56
76858;BME280;65830;0.000;0.000;2024-02-23T00:51:16;99665.53;;;5.75;90.05
76858;BME280;65830;0.000;0.000;2024-02-23T00:53:41;99668.06;;;5.64;91.38
76858;BME280;65830;0.000;0.000;2024-02-23T00:56:07;99668.56;;;5.69;90.82
76858;BME280;65830;0.000;0.000;2024-02-23T00:58:32;99670.47;;;5.67;90.76
76858;BME280;65830;0.000;0.000;2024-02-23T01:00:58;99671.84;;;5.72;90.78
76858;BME280;65830;0.000;0.000;2024-02-23T01:03:24;99667.44;;;5.73;91.07
76858;BME280;65830;0.000;0.000;2024-02-23T01:05:49;99667.00;;;5.79;90.51
76858;BME280;65830;0.000;0.000;2024-02-23T01:08:15;99663.84;;;5.74;90.47
76858;BME280;65830;0.000;0.000;2024-02-23T01:10:40;99660.03;;;5.78;90.24
76858;BME280;65830;0.000;0.000;2024-02-23T01:13:06;99662.19;;;5.60;91.63
76858;BME280;65830;0.000;0.000;2024-02-23T01:15:31;99651.75;;;5.58;91.78
76858;BME280;65830;0.000;0.000;2024-02-23T01:17:57;99664.31;;;5.55;91.93
76858;BME280;65830;0.000;0.000;2024-02-23T01:20:22;99657.44;;;5.52;92.51
76858;BME280;65830;0.000;0.000;2024-02-23T01:22:48;99654.38;;;5.58;91.94
76858;BME280;65830;0.000;0.000;2024-02-23T01:25:13;99647.00;;;5.51;91.88
76858;BME280;65830;0.000;0.000;2024-02-23T01:27:41;99645.44;;;5.48;92.45
76858;BME280;65830;0.000;0.000;2024-02-23T01:30:06;99648.41;;;5.44;92.45
76858;BME280;65830;0.000;0.000;2024-02-23T01:32:32;99637.06;;;5.43;92.96
76858;BME280;65830;0.000;0.000;2024-02-23T01:34:58;99649.25;;;5.44;93.71
76858;BME280;65830;0.000;0.000;2024-02-23T01:37:23;99646.50;;;5.58;92.93
76858;BME280;65830;0.000;0.000;2024-02-23T01:39:49;99636.81;;;5.59;93.00
76858;BME280;65830;0.000;0.000;2024-02-23T01:42:14;99636.69;;;5.61;91.68
76858;BME280;65830;0.000;0.000;2024-02-23T01:44:40;99634.59;;;5.53;92.73
76858;BME280;65830;0.000;0.000;2024-02-23T01:47:05;99642.09;;;5.46;93.20
76858;BME280;65830;0.000;0.000;2024-02-23T01:49:31;99632.81;;;5.41;93.46
76858;BME280;65830;0.000;0.000;2024-02-23T01:51:59;99634.00;;;5.36;94.04
76858;BME280;65830;0.000;0.000;2024-02-23T01:54:29;99631.13;;;5.52;93.71
76858;BME280;65830;0.000;0.000;2024-02-23T01:56:55;99628.09;;;5.46;93.47
76858;BME280;65830;0.000;0.000;2024-02-23T01:59:22;99627.56;;;5.53;93.14
76858;BME280;65830;0.000;0.000;2024-02-23T02:01:48;99625.66;;;5.55;93.10
76858;BME280;65830;0.000;0.000;2024-02-23T02:04:14;99626.28;;;5.59;92.49
76858;BME280;65830;0.000;0.000;2024-02-23T02:06:39;99621.25;;;5.43;93.63
76858;BME280;65830;0.000;0.000;2024-02-23T02:09:05;99611.66;;;5.42;94.33
76858;BME280;65830;0.000;0.000;2024-02-23T02:11:30;99619.25;;;5.34;94.87
76858;BME280;65830;0.000;0.000;2024-02-23T02:13:56;99625.03;;;5.39;95.37
76858;BME280;65830;0.000;0.000;2024-02-23T02:16:21;99627.03;;;5.48;95.06
76858;BME280;65830;0.000;0.000;2024-02-23T02:18:47;99626.41;;;5.45;94.66
76858;BME280;65830;0.000;0.000;2024-02-23T02:21:12;99619.56;;;5.42;94.71
76858;BME280;65830;0.000;0.000;2024-02-23T02:23:38;99624.53;;;5.34;95.54
76858;BME280;65830;0.000;0.000;2024-02-23T02:26:04;99626.19;;;5.35;96.14
76858;BME280;65830;0.000;0.000;2024-02-23T02:28:29;99616.00;;;5.30;95.90
76858;BME280;65830;0.000;0.000;2024-02-23T02:30:55;99618.72;;;5.29;96.29
76858;BME280;65830;0.000;0.000;2024-02-23T02:33:21;99626.84;;;5.26;96.74
76858;BME280;65830;0.000;0.000;2024-02-23T02:35:47;99615.16;;;5.30;96.56
76858;BME280;65830;0.000;0.000;2024-02-23T02:38:13;99622.00;;;5.32;96.49
76858;BME280;65830;0.000;0.000;2024-02-23T02:40:38;99622.09;;;5.31;96.68
76858;BME280;65830;0.000;0.000;2024-02-23T02:43:04;99610.94;;;5.40;95.81
76858;BME280;65830;0.000;0.000;2024-02-23T02:45:31;99622.06;;;5.56;94.70
76858;BME280;65830;0.000;0.000;2024-02-23T02:47:56;99625.47;;;5.46;94.94
76858;BME280;65830;0.000;0.000;2024-02-23T02:50:22;99623.09;;;5.80;93.24
76858;BME280;65830;0.000;0.000;2024-02-23T02:52:47;99623.19;;;5.78;91.04
76858;BME280;65830;0.000;0.000;2024-02-23T02:55:13;99632.25;;;5.74;89.21
76858;BME280;65830;0.000;0.000;2024-02-23T02:57:38;99633.75;;;5.65;89.47
76858;BME280;65830;0.000;0.000;2024-02-23T03:00:04;99630.72;;;5.33;90.93
76858;BME280;65830;0.000;0.000;2024-02-23T03:02:30;99619.75;;;5.39;91.06
76858;BME280;65830;0.000;0.000;2024-02-23T03:04:56;99637.78;;;5.20;90.62
76858;BME280;65830;0.000;0.000;2024-02-23T03:07:21;99632.72;;;5.16;91.25
76858;BME280;65830;0.000;0.000;2024-02-23T03:09:47;99634.00;;;5.24;90.25
76858;BME280;65830;0.000;0.000;2024-02-23T03:12:14;99637.16;;;5.16;89.29
76858;BME280;65830;0.000;0.000;2024-02-23T03:14:39;99648.09;;;5.23;88.38
76858;BME280;65830;0.000;0.000;2024-02-23T03:17:06;99641.25;;;4.94;88.17
76858;BME280;65830;0.000;0.000;2024-02-23T03:19:32;99638.53;;;4.96;87.80
76858;BME280;65830;0.000;0.000;2024-02-23T03:21:58;99646.19;;;4.86;87.38
76858;BME280;65830;0.000;0.000;2024-02-23T03:24:24;99648.75;;;4.73;89.15
76858;BME280;65830;0.000;0.000;2024-02-23T03:26:49;99656.66;;;4.73;88.29
76858;BME280;65830;0.000;0.000;2024-02-23T03:29:15;99644.06;;;4.78;88.50
76858;BME280;65830;0.000;0.000;2024-02-23T03:31:41;99647.66;;;4.90;87.39
76858;BME280;65830;0.000;0.000;2024-02-23T03:34:06;99655.72;;;4.87;87.85
76858;BME280;65830;0.000;0.000;2024-02-23T03:36:33;99643.44;;;4.88;87.02
76858;BME280;65830;0.000;0.000;2024-02-23T03:38:59;99651.41;;;4.73;88.12
76858;BME280;65830;0.000;0.000;2024-02-23T03:41:24;99647.19;;;4.58;88.97
76858;BME280;65830;0.000;0.000;2024-02-23T03:43:50;99643.59;;;4.59;88.48
76858;BME280;65830;0.000;0.000;2024-02-23T03:46:15;99642.41;;;4.50;89.59
76858;BME280;65830;0.000;0.000;2024-02-23T03:48:41;99642.50;;;4.49;90.05
76858;BME280;65830;0.000;0.000;2024-02-23T03:51:08;99651.41;;;4.73;92.01
76858;BME280;65830;0.000;0.000;2024-02-23T03:53:34;99648.72;;;4.88;91.10
76858;BME280;65830;0.000;0.000;2024-02-23T03:55:59;99644.19;;;4.90;89.78
76858;BME280;65830;0.000;0.000;2024-02-23T03:58:25;99648.28;;;4.94;89.82
76858;BME280;65830;0.000;0.000;2024-02-23T04:00:51;99640.69;;;4.76;88.68
76858;BME280;65830;0.000;0.000;2024-02-23T04:03:16;99644.66;;;4.69;89.14
76858;BME280;65830;0.000;0.000;2024-02-23T04:05:42;99653.03;;;4.62;89.10
76858;BME280;65830;0.000;0.000;2024-02-23T04:08:07;99650.50;;;4.47;90.48
76858;BME280;65830;0.000;0.000;2024-02-23T04:10:33;99651.88;;;4.26;91.99
76858;BME280;65830;0.000;0.000;2024-02-23T04:12:59;99651.84;;;4.13;93.19
76858;BME280;65830;0.000;0.000;2024-02-23T04:15:25;99641.47;;;4.51;93.42
76858;BME280;65830;0.000;0.000;2024-02-23T04:17:50;99649.91;;;4.69;94.03
76858;BME280;65830;0.000;0.000;2024-02-23T04:20:15;99646.19;;;4.46;92.49
76858;BME280;65830;0.000;0.000;2024-02-23T04:22:41;99645.72;;;4.40;91.00
76858;BME280;65830;0.000;0.000;2024-02-23T04:25:07;99645.94;;;4.36;91.18
76858;BME280;65830;0.000;0.000;2024-02-23T04:27:32;99653.19;;;4.33;90.99
76858;BME280;65830;0.000;0.000;2024-02-23T04:29:58;99655.38;;;4.12;91.43
76858;BME280;65830;0.000;0.000;2024-02-23T04:32:23;99650.50;;;4.20;91.37
76858;BME280;65830;0.000;0.000;2024-02-23T04:34:49;99649.31;;;4.11;91.32
76858;BME280;65830;0.000;0.000;2024-02-23T04:37:14;99648.06;;;4.17;93.46
76858;BME280;65830;0.000;0.000;2024-02-23T04:39:40;99651.50;;;4.05;92.70
76858;BME280;65830;0.000;0.000;2024-02-23T04:42:07;99655.06;;;4.31;91.33
76858;BME280;65830;0.000;0.000;2024-02-23T04:44:34;99645.13;;;4.22;90.27
76858;BME280;65830;0.000;0.000;2024-02-23T04:46:59;99653.56;;;4.27;89.84
76858;BME280;65830;0.000;0.000;2024-02-23T04:49:25;99648.25;;;4.28;90.09
76858;BME280;65830;0.000;0.000;2024-02-23T04:51:51;99650.66;;;4.31;89.19
76858;BME280;65830;0.000;0.000;2024-02-23T04:54:16;99649.50;;;4.35;93.03
76858;BME280;65830;0.000;0.000;2024-02-23T04:56:42;99646.19;;;4.46;93.35
76858;BME280;65830;0.000;0.000;2024-02-23T04:59:07;99645.34;;;4.46;93.15
76858;BME280;65830;0.000;0.000;2024-02-23T05:01:36;99644.44;;;4.60;91.02
76858;BME280;65830;0.000;0.000;2024-02-23T05:04:02;99643.63;;;4.72;89.15
76858;BME280;65830;0.000;0.000;2024-02-23T05:06:28;99654.97;;;4.72;88.25
76858;BME280;65830;0.000;0.000;2024-02-23T05:08:54;99654.16;;;4.72;88.24
76858;BME280;65830;0.000;0.000;2024-02-23T05:11:20;99663.69;;;4.60;88.88
76858;BME280;65830;0.000;0.000;2024-02-23T05:13:45;99657.84;;;4.42;89.26
76858;BME280;65830;0.000;0.000;2024-02-23T05:16:11;99658.34;;;4.34;90.05
76858;BME280;65830;0.000;0.000;2024-02-23T05:18:38;99662.00;;;4.32;90.10
76858;BME280;65830;0.000;0.000;2024-02-23T05:21:04;99667.09;;;4.48;90.15
76858;BME280;65830;0.000;0.000;2024-02-23T05:23:30;99673.41;;;4.45;89.89
76858;BME280;65830;0.000;0.000;2024-02-23T05:25:55;99668.34;;;4.42;90.26
76858;BME280;65830;0.000;0.000;2024-02-23T05:28:21;99675.28;;;4.43;90.14
76858;BME280;65830;0.000;0.000;2024-02-23T05:30:46;99678.25;;;4.51;90.39
76858;BME280;65830;0.000;0.000;2024-02-23T05:33:12;99677.41;;;4.51;89.95
76858;BME280;65830;0.000;0.000;2024-02-23T05:35:38;99680.75;;;4.40;90.96
76858;BME280;65830;0.000;0.000;2024-02-23T05:38:03;99682.28;;;4.57;90.12
76858;BME280;65830;0.000;0.000;2024-02-23T05:40:31;99675.41;;;4.94;88.77
76858;BME280;65830;0.000;0.000;2024-02-23T05:42:56;99675.78;;;4.75;88.28
76858;BME280;65830;0.000;0.000;2024-02-23T05:45:22;99680.06;;;4.64;88.43
76858;BME280;65830;0.000;0.000;2024-02-23T05:47:47;99685.03;;;4.68;88.85
76858;BME280;65830;0.000;0.000;2024-02-23T05:50:13;99693.03;;;4.80;88.54
76858;BME280;65830;0.000;0.000;2024-02-23T05:52:38;99686.34;;;4.88;87.21
76858;BME280;65830;0.000;0.000;2024-02-23T05:55:04;99691.28;;;4.80;87.79
76858;BME280;65830;0.000;0.000;2024-02-23T05:57:30;99692.25;;;4.92;87.38
76858;BME280;65830;0.000;0.000;2024-02-23T05:59:56;99692.50;;;5.40;85.21
76858;BME280;65830;0.000;0.000;2024-02-23T06:02:22;99691.16;;;5.47;84.37
76858;BME280;65830;0.000;0.000;2024-02-23T06:04:47;99705.78;;;5.51;84.16
76858;BME280;65830;0.000;0.000;2024-02-23T06:07:13;99706.81;;;5.62;83.56
76858;BME280;65830;0.000;0.000;2024-02-23T06:09:41;99706.53;;;5.53;84.30
76858;BME280;65830;0.000;0.000;2024-02-23T06:12:06;99717.16;;;5.52;84.17
76858;BME280;65830;0.000;0.000;2024-02-23T06:14:32;99715.88;;;5.45;84.80
76858;BME280;65830;0.000;0.000;2024-02-23T06:16:58;99718.72;;;5.54;84.08
76858;BME280;65830;0.000;0.000;2024-02-23T06:19:23;99720.41;;;5.43;83.63
76858;BME280;65830;0.000;0.000;2024-02-23T06:21:49;99731.25;;;5.38;84.21
76858;BME280;65830;0.000;0.000;2024-02-23T06:24:15;99736.59;;;5.24;84.72
76858;BME280;65830;0.000;0.000;2024-02-23T06:26:41;99723.78;;;5.32;85.00
76858;BME280;65830;0.000;0.000;2024-02-23T06:29:07;99736.09;;;5.44;84.28
76858;BME280;65830;0.000;0.000;2024-02-23T06:31:36;99741.97;;;5.61;83.70
76858;BME280;65830;0.000;0.000;2024-02-23T06:34:02;99737.44;;;5.63;83.41
76858;BME280;65830;0.000;0.000;2024-02-23T06:36:27;99736.19;;;5.68;83.04
76858;BME280;65830;0.000;0.000;2024-02-23T06:38:53;99734.50;;;5.54;83.46
76858;BME280;65830;0.000;0.000;2024-02-23T06:41:18;99739.25;;;5.75;82.05
76858;BME280;65830;0.000;0.000;2024-02-23T06:43:44;99740.22;;;5.61;82.04
76858;BME280;65830;0.000;0.000;2024-02-23T06:46:10;99730.94;;;5.55;82.46
76858;BME280;65830;0.000;0.000;2024-02-23T06:48:35;99735.66;;;5.76;82.35
76858;BME280;65830;0.000;0.000;2024-02-23T06:51:02;99731.66;;;5.96;80.88
76858;BME280;65830;0.000;0.000;2024-02-23T06:53:28;99729.34;;;5.91;79.95
76858;BME280;65830;0.000;0.000;2024-02-23T06:55:54;99731.00;;;5.92;79.93
76858;BME280;65830;0.000;0.000;2024-02-23T06:58:19;99724.81;;;5.81;80.19
76858;BME280;65830;0.000;0.000;2024-02-23T07:00:45;99735.53;;;5.90;80.08
76858;BME280;65830;0.000;0.000;2024-02-23T07:03:11;99723.78;;;5.96;79.57
76858;BME280;65830;0.000;0.000;2024-02-23T07:05:37;99733.22;;;6.11;79.04
76858;BME280;65830;0.000;0.000;2024-02-23T07:08:02;99730.56;;;6.24;78.24
76858;BME280;65830;0.000;0.000;2024-02-23T07:10:28;99716.22;;;6.28;77.61
76858;BME280;65830;0.000;0.000;2024-02-23T07:12:53;99728.25;;;6.56;76.56
76858;BME280;65830;0.000;0.000;2024-02-23T07:15:20;99733.41;;;6.58;76.13
76858;BME280;65830;0.000;0.000;2024-02-23T07:17:45;99741.25;;;6.47;76.54
76858;BME280;65830;0.000;0.000;2024-02-23T07:20:11;99730.16;;;6.54;76.13
76858;BME280;65830;0.000;0.000;2024-02-23T07:22:36;99727.63;;;6.53;76.27
76858;BME280;65830;0.000;0.000;2024-02-23T07:25:02;99717.25;;;6.63;75.92
76858;BME280;65830;0.000;0.000;2024-02-23T07:27:29;99727.84;;;6.98;75.41
76858;BME280;65830;0.000;0.000;2024-02-23T07:29:55;99728.25;;;7.16;74.33
76858;BME280;65830;0.000;0.000;2024-02-23T07:32:21;99732.47;;;7.19;73.59
76858;BME280;65830;0.000;0.000;2024-02-23T07:34:46;99718.91;;;7.23;73.63
76858;BME280;65830;0.000;0.000;2024-02-23T07:37:12;99718.94;;;7.34;73.76
76858;BME280;65830;0.000;0.000;2024-02-23T07:39:38;99715.84;;;7.52;72.54
76858;BME280;65830;0.000;0.000;2024-02-23T07:42:03;99709.28;;;7.58;72.28
76858;BME280;65830;0.000;0.000;2024-02-23T07:44:31;99707.09;;;7.63;72.24
76858;BME280;65830;0.000;0.000;2024-02-23T07:46:56;99708.19;;;7.71;72.03
76858;BME280;65830;0.000;0.000;2024-02-23T07:49:23;99711.94;;;8.03;71.15
76858;BME280;65830;0.000;0.000;2024-02-23T07:51:49;99717.94;;;8.05;70.95
76858;BME280;65830;0.000;0.000;2024-02-23T07:54:15;99710.94;;;8.15;70.72
76858;BME280;65830;0.000;0.000;2024-02-23T07:56:40;99704.47;;;8.08;71.50
76858;BME280;65830;0.000;0.000;2024-02-23T07:59:06;99704.78;;;8.26;71.02
76858;BME280;65830;0.000;0.000;2024-02-23T08:01:31;99702.59;;;8.53;69.43
76858;BME280;65830;0.000;0.000;2024-02-23T08:03:57;99704.78;;;8.81;69.26
76858;BME280;65830;0.000;0.000;2024-02-23T08:06:22;99711.75;;;8.82;69.16
76858;BME280;65830;0.000;0.000;2024-02-23T08:08:48;99710.50;;;8.97;68.21
76858;BME280;65830;0.000;0.000;2024-02-23T08:11:13;99704.75;;;8.92;68.75
76858;BME280;65830;0.000;0.000;2024-02-23T08:13:39;99699.47;;;9.13;69.01
76858;BME280;65830;0.000;0.000;2024-02-23T08:16:06;99703.09;;;9.12;71.09
76858;BME280;65830;0.000;0.000;2024-02-23T08:18:31;99705.47;;;9.15;72.15
76858;BME280;65830;0.000;0.000;2024-02-23T08:20:57;99703.97;;;9.01;73.19
76858;BME280;65830;0.000;0.000;2024-02-23T08:23:23;99693.25;;;9.45;72.23
76858;BME280;65830;0.000;0.000;2024-02-23T08:25:49;99699.19;;;9.58;71.92
76858;BME280;65830;0.000;0.000;2024-02-23T08:28:16;99692.78;;;9.61;71.11
76858;BME280;65830;0.000;0.000;2024-02-23T08:30:41;99686.88;;;9.78;71.17
76858;BME280;65830;0.000;0.000;2024-02-23T08:33:07;99692.63;;;9.83;71.30
76858;BME280;65830;0.000;0.000;2024-02-23T08:35:35;99699.13;;;9.69;71.74
76858;BME280;65830;0.000;0.000;2024-02-23T08:38:00;99686.00;;;9.68;71.93
76858;BME280;65830;0.000;0.000;2024-02-23T08:40:26;99689.63;;;9.77;70.94
76858;BME280;65830;0.000;0.000;2024-02-23T08:42:52;99694.72;;;9.59;71.04
76858;BME280;65830;0.000;0.000;2024-02-23T08:45:17;99688.97;;;9.84;69.88
76858;BME280;65830;0.000;0.000;2024-02-23T08:47:43;99684.13;;;9.89;69.19
76858;BME280;65830;0.000;0.000;2024-02-23T08:50:09;99680.31;;;10.13;70.19
76858;BME280;65830;0.000;0.000;2024-02-23T08:52:34;99681.38;;;10.10;69.85
76858;BME280;65830;0.000;0.000;2024-02-23T08:55:00;99680.59;;;10.29;69.35
76858;BME280;65830;0.000;0.000;2024-02-23T08:57:26;99692.59;;;10.24;69.85
76858;BME280;65830;0.000;0.000;2024-02-23T08:59:52;99692.91;;;10.30;69.15
76858;BME280;65830;0.000;0.000;2024-02-23T09:02:18;99692.34;;;10.27;69.42
76858;BME280;65830;0.000;0.000;2024-02-23T09:04:44;99683.69;;;10.34;68.47
76858;BME280;65830;0.000;0.000;2024-02-23T09:07:11;99686.53;;;10.33;68.63
76858;BME280;65830;0.000;0.000;2024-02-23T09:09:36;99679.13;;;11.05;66.97
76858;BME280;65830;0.000;0.000;2024-02-23T09:12:02;99678.19;;;10.77;66.99
76858;BME280;65830;0.000;0.000;2024-02-23T09:14:27;99679.28;;;10.74;66.42
76858;BME280;65830;0.000;0.000;2024-02-23T09:16:53;99672.56;;;10.99;65.54
76858;BME280;65830;0.000;0.000;2024-02-23T09:19:19;99667.53;;;11.06;66.42
76858;BME280;65830;0.000;0.000;2024-02-23T09:21:45;99669.13;;;11.56;65.40
76858;BME280;65830;0.000;0.000;2024-02-23T09:24:11;99666.88;;;11.51;64.68
76858;BME280;65830;0.000;0.000;2024-02-23T09:26:36;99658.19;;;11.59;63.95
76858;BME280;65830;0.000;0.000;2024-02-23T09:29:02;99662.38;;;11.51;64.08
76858;BME280;65830;0.000;0.000;2024-02-23T09:31:27;99657.72;;;11.63;63.34
76858;BME280;65830;0.000;0.000;2024-02-23T09:33:57;99658.50;;;11.46;64.44
76858;BME280;65830;0.000;0.000;2024-02-23T09:36:23;99660.03;;;11.48;64.48
76858;BME280;65830;0.000;0.000;2024-02-23T09:38:48;99648.34;;;11.69;63.74
76858;BME280;65830;0.000;0.000;2024-02-23T09:41:22;99641.66;;;11.65;63.35
76858;BME280;65830;0.000;0.000;2024-02-23T09:43:48;99641.28;;;11.87;62.90
76858;BME280;65830;0.000;0.000;2024-02-23T09:46:15;99634.28;;;11.86;63.43
76858;BME280;65830;0.000;0.000;2024-02-23T09:48:44;99636.38;;;11.92;63.91
76858;BME280;65830;0.000;0.000;2024-02-23T09:51:10;99631.59;;;11.96;63.53
76858;BME280;65830;0.000;0.000;2024-02-23T09:53:36;99631.16;;;12.01;63.67
76858;BME280;65830;0.000;0.000;2024-02-23T09:56:02;99619.97;;;12.43;61.88
76858;BME280;65830;0.000;0.000;2024-02-23T09:58:29;99614.94;;;12.40;60.97
76858;BME280;65830;0.000;0.000;2024-02-23T10:00:55;99614.31;;;12.10;61.95
76858;BME280;65830;0.000;0.000;2024-02-23T10:03:24;99601.56;;;12.31;61.53
76858;BME280;65830;0.000;0.000;2024-02-23T10:05:51;99598.75;;;12.33;61.59
76858;BME280;65830;0.000;0.000;2024-02-23T10:08:17;99589.22;;;12.30;60.97
76858;BME280;65830;0.000;0.000;2024-02-23T10:10:45;99597.34;;;12.83;59.93
76858;BME280;65830;0.000;0.000;2024-02-23T10:13:10;99606.25;;;12.74;60.30
76858;BME280;65830;0.000;0.000;2024-02-23T10:15:36;99597.75;;;12.96;59.19
76858;BME280;65830;0.000;0.000;2024-02-23T10:18:02;99592.19;;;13.07;58.92
76858;BME280;65830;0.000;0.000;2024-02-23T10:20:27;99593.97;;;13.25;58.07
76858;BME280;65830;0.000;0.000;2024-02-23T10:22:53;99589.41;;;13.17;56.95
76858;BME280;65830;0.000;0.000;2024-02-23T10:25:19;99583.91;;;13.37;56.80
76858;BME280;65830;0.000;0.000;2024-02-23T10:27:45;99586.97;;;13.50;56.65
76858;BME280;65830;0.000;0.000;2024-02-23T10:30:10;99579.09;;;13.40;56.74
76858;BME280;65830;0.000;0.000;2024-02-23T10:32:40;99577.75;;;13.36;56.79
76858;BME280;65830;0.000;0.000;2024-02-23T10:35:09;99569.41;;;13.39;57.23
76858;BME280;65830;0.000;0.000;2024-02-23T10:37:35;99575.53;;;13.66;56.12
76858;BME280;65830;0.000;0.000;2024-02-23T10:40:00;99563.41;;;13.72;55.40
76858;BME280;65830;0.000;0.000;2024-02-23T10:42:27;99556.84;;;13.58;55.62
76858;BME280;65830;0.000;0.000;2024-02-23T10:44:56;99562.66;;;13.61;56.44
76858;BME280;65830;0.000;0.000;2024-02-23T10:47:26;99561.63;;;13.97;54.27
76858;BME280;65830;0.000;0.000;2024-02-23T10:49:53;99549.28;;;13.96;53.19
76858;BME280;65830;0.000;0.000;2024-02-23T10:52:20;99549.16;;;14.14;52.92
76858;BME280;65830;0.000;0.000;2024-02-23T10:54:48;99543.47;;;14.08;51.98
76858;BME280;65830;0.000;0.000;2024-02-23T10:57:14;99542.66;;;14.16;52.81
76858;BME280;65830;0.000;0.000;2024-02-23T10:59:40;99539.47;;;14.29;52.27
76858;BME280;65830;0.000;0.000;2024-02-23T11:02:05;99543.66;;;14.48;52.12
76858;BME280;65830;0.000;0.000;2024-02-23T11:04:31;99532.84;;;14.74;51.07
76858;BME280;65830;0.000;0.000;2024-02-23T11:06:57;99526.16;;;14.70;50.99
76858;BME280;65830;0.000;0.000;2024-02-23T11:09:24;99524.69;;;14.59;51.10
76858;BME280;65830;0.000;0.000;2024-02-23T11:14:19;99521.91;;;15.00;50.54
76858;BME280;65830;0.000;0.000;2024-02-23T11:16:54;99510.91;;;15.03;49.93
76858;BME280;65830;0.000;0.000;2024-02-23T11:19:20;99500.81;;;15.22;50.10
76858;BME280;65830;0.000;0.000;2024-02-23T11:21:52;99505.38;;;15.53;49.59
76858;BME280;65830;0.000;0.000;2024-02-23T11:24:17;99497.25;;;15.77;49.35
76858;BME280;65830;0.000;0.000;2024-02-23T11:26:43;99499.63;;;15.95;48.07
76858;BME280;65830;0.000;0.000;2024-02-23T11:29:12;99501.84;;;15.92;46.88
76858;BME280;65830;0.000;0.000;2024-02-23T11:31:43;99502.84;;;15.91;47.83
76858;BME280;65830;0.000;0.000;2024-02-23T11:34:09;99500.06;;;16.07;47.69
76858;BME280;65830;0.000;0.000;2024-02-23T11:36:35;99496.97;;;16.18;47.33
76858;BME280;65830;0.000;0.000;2024-02-23T11:39:01;99488.78;;;16.35;45.64
76858;BME280;65830;0.000;0.000;2024-02-23T11:41:27;99493.66;;;16.54;44.32
76858;BME280;65830;0.000;0.000;2024-02-23T11:43:53;99485.19;;;16.65;45.21
76858;BME280;65830;0.000;0.000;2024-02-23T11:46:20;99488.50;;;16.67;44.64
76858;BME280;65830;0.000;0.000;2024-02-23T11:48:46;99481.63;;;16.88;43.71
76858;BME280;65830;0.000;0.000;2024-02-23T11:51:14;99484.84;;;16.98;43.34
76858;BME280;65830;0.000;0.000;2024-02-23T11:53:40;99485.88;;;16.82;43.21
76858;BME280;65830;0.000;0.000;2024-02-23T11:56:06;99482.00;;;17.15;42.79
76858;BME280;65830;0.000;0.000;2024-02-23T11:58:32;99476.88;;;18.29;41.34
76858;BME280;65830;0.000;0.000;2024-02-23T12:00:57;99468.53;;;20.18;37.30
76858;BME280;65830;0.000;0.000;2024-02-23T12:03:25;99473.25;;;21.61;34.01
76858;BME280;65830;0.000;0.000;2024-02-23T12:05:51;99475.22;;;22.11;32.96
76858;BME280;65830;0.000;0.000;2024-02-23T12:08:17;99470.03;;;22.67;32.25
76858;BME280;65830;0.000;0.000;2024-02-23T12:10:43;99463.63;;;23.05;31.56
76858;BME280;65830;0.000;0.000;2024-02-23T12:13:09;99466.44;;;22.73;31.19
76858;BME280;65830;0.000;0.000;2024-02-23T12:15:35;99458.97;;;22.93;30.78
76858;BME280;65830;0.000;0.000;2024-02-23T12:18:02;99446.75;;;24.30;28.72
76858;BME280;65830;0.000;0.000;2024-02-23T12:20:28;99446.16;;;24.40;29.14
76858;BME280;65830;0.000;0.000;2024-02-23T12:22:58;99447.72;;;23.94;29.48
76858;BME280;65830;0.000;0.000;2024-02-23T12:25:25;99452.81;;;25.44;27.33
76858;BME280;65830;0.000;0.000;2024-02-23T12:27:57;99445.44;;;25.56;26.22
76858;BME280;65830;0.000;0.000;2024-02-23T12:30:22;99439.31;;;24.96;27.15
76858;BME280;65830;0.000;0.000;2024-02-23T12:32:48;99433.81;;;24.56;27.22
76858;BME280;65830;0.000;0.000;2024-02-23T12:35:14;99437.59;;;25.88;27.44
76858;BME280;65830;0.000;0.000;2024-02-23T12:37:39;99433.09;;;25.36;26.02
76858;BME280;65830;0.000;0.000;2024-02-23T12:40:06;99424.72;;;26.63;25.99
76858;BME280;65830;0.000;0.000;2024-02-23T12:42:32;99424.00;;;27.12;24.24
76858;BME280;65830;0.000;0.000;2024-02-23T12:44:57;99422.47;;;26.43;24.83
76858;BME280;65830;0.000;0.000;2024-02-23T12:47:23;99421.91;;;26.41;25.15
76858;BME280;65830;0.000;0.000;2024-02-23T12:49:49;99412.75;;;28.44;23.63
76858;BME280;65830;0.000;0.000;2024-02-23T12:52:14;99410.81;;;28.77;22.44
76858;BME280;65830;0.000;0.000;2024-02-23T12:54:40;99405.13;;;28.41;22.38
76858;BME280;65830;0.000;0.000;2024-02-23T12:57:07;99412.94;;;26.24;24.26
76858;BME280;65830;0.000;0.000;2024-02-23T12:59:32;99406.31;;;28.56;21.73
76858;BME280;65830;0.000;0.000;2024-02-23T13:01:58;99395.44;;;26.92;23.33
76858;BME280;65830;0.000;0.000;2024-02-23T13:04:23;99400.09;;;26.75;23.81
76858;BME280;65830;0.000;0.000;2024-02-23T13:06:49;99394.91;;;28.64;21.54
76858;BME280;65830;0.000;0.000;2024-02-23T13:09:14;99394.28;;;29.04;21.35
76858;BME280;65830;0.000;0.000;2024-02-23T13:11:40;99397.81;;;29.78;20.10